createdAt,value
2023-02-21T00:01:56.954Z,12.50
2023-02-21T00:04:50.061Z,9.80
2023-02-21T00:07:43.124Z,6.40
2023-02-21T00:10:37.681Z,4.40
2023-02-21T00:13:27.693Z,4.80
2023-02-21T00:16:18.446Z,17.20
2023-02-21T00:19:08.631Z,10.60
2023-02-21T00:21:58.848Z,12.60
2023-02-21T00:24:49.215Z,4.80
2023-02-21T00:27:39.371Z,5.80
2023-02-21T00:30:33.863Z,7.60
2023-02-21T00:33:31.703Z,11.50
2023-02-21T00:36:25.032Z,13.40
2023-02-21T00:39:16.650Z,11.20
2023-02-21T00:42:06.678Z,7.70
2023-02-21T00:44:57.108Z,5.50
2023-02-21T00:47:47.320Z,3.60
2023-02-21T00:50:37.615Z,14.60
2023-02-21T00:53:28.959Z,13.80
2023-02-21T00:56:21.938Z,13.90
2023-02-21T00:59:15.204Z,9.60
2023-02-21T01:02:05.943Z,6.70
2023-02-21T01:04:56.453Z,7.40
2023-02-21T01:10:38.160Z,7.90
2023-02-21T01:13:29.717Z,10.10
2023-02-21T01:16:19.265Z,8.60
2023-02-21T01:19:09.736Z,11.50
2023-02-21T01:21:59.701Z,5.50
2023-02-21T01:24:49.858Z,7.40
2023-02-21T01:27:42.869Z,7.20
2023-02-21T01:30:33.755Z,5.70
2023-02-21T01:33:25.565Z,4.40
2023-02-21T01:36:17.302Z,5.20
2023-02-21T01:39:13.721Z,6.80
2023-02-21T01:42:07.104Z,6.20
2023-02-21T01:44:59.389Z,4.30
2023-02-21T01:47:49.658Z,4.00
2023-02-21T01:50:47.286Z,4.30
2023-02-21T01:53:40.609Z,5.10
2023-02-21T01:56:34.618Z,6.10
2023-02-21T01:59:25.453Z,7.50
2023-02-21T02:02:21.319Z,6.00
2023-02-21T02:05:12.915Z,4.70
2023-02-21T02:08:03.823Z,5.10
2023-02-21T02:10:54.191Z,4.10
2023-02-21T02:13:49.018Z,7.10
2023-02-21T02:16:31.309Z,13.80
2023-02-21T02:19:43.709Z,12.40
2023-02-21T02:22:52.392Z,12.70
2023-02-21T02:25:42.312Z,5.00
2023-02-21T02:28:34.485Z,6.50
2023-02-21T02:31:34.766Z,6.00
2023-02-21T02:34:42.290Z,9.30
2023-02-21T02:37:23.604Z,13.50
2023-02-21T02:40:02.414Z,18.40
2023-02-21T02:42:48.728Z,21.20
2023-02-21T02:45:27.622Z,5.40
2023-02-21T02:48:04.785Z,5.80
2023-02-21T02:50:37.875Z,6.90
2023-02-21T02:53:10.516Z,6.40
2023-02-21T02:55:50.607Z,10.60
2023-02-21T02:58:25.566Z,15.70
2023-02-21T03:01:10.238Z,11.50
2023-02-21T03:04:07.167Z,7.90
2023-02-21T03:06:55.782Z,8.10
2023-02-21T03:09:35.690Z,9.10
2023-02-21T03:12:11.698Z,9.70
2023-02-21T03:14:51.977Z,12.40
2023-02-21T03:17:31.760Z,12.20
2023-02-21T03:20:06.553Z,12.90
2023-02-21T03:22:39.589Z,9.00
2023-02-21T03:25:13.027Z,8.00
2023-02-21T03:27:46.312Z,10.90
2023-02-21T03:30:29.728Z,10.80
2023-02-21T03:33:10.461Z,34.80
2023-02-21T03:35:46.420Z,36.50
2023-02-21T03:38:24.619Z,17.70
2023-02-21T03:40:59.901Z,25.10
2023-02-21T03:43:32.602Z,23.60
2023-02-21T03:46:06.684Z,11.10
2023-02-21T03:48:41.651Z,12.80
2023-02-21T03:51:22.182Z,10.60
2023-02-21T03:53:55.125Z,9.10
2023-02-21T03:56:41.502Z,6.00
2023-02-21T03:59:34.669Z,10.90
2023-02-21T04:02:07.791Z,10.60
2023-02-21T04:04:42.105Z,15.00
2023-02-21T04:07:19.385Z,11.90
2023-02-21T04:09:52.032Z,8.10
2023-02-21T04:12:30.771Z,7.90
2023-02-21T04:15:03.141Z,8.60
2023-02-21T04:17:35.650Z,9.20
2023-02-21T04:20:10.538Z,8.90
2023-02-21T04:23:02.862Z,10.00
2023-02-21T04:25:39.417Z,12.30
2023-02-21T04:28:18.605Z,10.20
2023-02-21T04:30:50.889Z,15.60
2023-02-21T04:33:23.424Z,17.10
2023-02-21T04:35:55.667Z,17.20
2023-02-21T04:38:31.204Z,14.10
2023-02-21T04:41:04.190Z,4.80
2023-02-21T04:43:36.368Z,5.00
2023-02-21T04:46:08.816Z,4.80
2023-02-21T04:48:41.029Z,7.80
2023-02-21T04:51:16.124Z,19.20
2023-02-21T04:53:50.225Z,18.30
2023-02-21T04:56:25.929Z,12.50
2023-02-21T04:58:59.025Z,7.80
2023-02-21T05:01:32.837Z,6.60
2023-02-21T05:04:05.615Z,10.30
2023-02-21T05:06:37.843Z,8.90
2023-02-21T05:09:12.623Z,5.90
2023-02-21T05:11:44.783Z,11.70
2023-02-21T05:14:18.323Z,17.20
2023-02-21T05:16:50.591Z,10.90
2023-02-21T05:19:27.582Z,15.40
2023-02-21T05:22:02.508Z,11.80
2023-02-21T05:24:35.288Z,14.60
2023-02-21T05:27:11.559Z,8.20
2023-02-21T05:29:43.875Z,11.50
2023-02-21T05:32:16.641Z,16.40
2023-02-21T05:34:49.189Z,10.50
2023-02-21T05:37:22.274Z,9.30
2023-02-21T05:40:01.953Z,8.20
2023-02-21T05:42:34.578Z,8.10
2023-02-21T05:45:07.594Z,5.90
2023-02-21T05:47:40.115Z,6.60
2023-02-21T05:50:12.901Z,11.40
2023-02-21T05:52:48.955Z,9.30
2023-02-21T05:55:21.208Z,7.20
2023-02-21T05:57:53.517Z,12.20
2023-02-21T06:00:28.296Z,13.90
2023-02-21T06:03:01.989Z,9.70
2023-02-21T06:05:36.889Z,8.50
2023-02-21T06:08:11.828Z,8.30
2023-02-21T06:10:45.253Z,10.20
2023-02-21T06:13:17.842Z,7.50
2023-02-21T06:15:50.453Z,14.00
2023-02-21T06:18:22.782Z,16.70
2023-02-21T06:20:54.978Z,14.40
2023-02-21T06:23:27.444Z,31.40
2023-02-21T06:25:59.697Z,12.70
2023-02-21T06:28:32.828Z,12.10
2023-02-21T06:31:06.604Z,7.50
2023-02-21T06:33:39.238Z,14.90
2023-02-21T06:36:15.054Z,17.80
2023-02-21T06:38:51.287Z,13.80
2023-02-21T06:41:26.326Z,12.60
2023-02-21T06:43:59.953Z,12.20
2023-02-21T06:46:33.236Z,15.90
2023-02-21T06:49:05.654Z,31.70
2023-02-21T06:51:39.404Z,67.00
2023-02-21T06:54:12.209Z,21.80
2023-02-21T06:56:44.734Z,19.30
2023-02-21T06:59:18.196Z,16.20
2023-02-21T07:01:50.536Z,17.50
2023-02-21T07:04:22.986Z,15.60
2023-02-21T07:06:55.410Z,20.30
2023-02-21T07:09:27.667Z,14.10
2023-02-21T07:11:59.870Z,20.20
2023-02-21T07:14:32.151Z,15.80
2023-02-21T07:17:04.370Z,21.20
2023-02-21T07:19:38.755Z,17.40
2023-02-21T07:22:11.012Z,20.70
2023-02-21T07:24:43.258Z,17.10
2023-02-21T07:27:15.738Z,11.10
2023-02-21T07:29:51.700Z,11.30
2023-02-21T07:34:56.390Z,15.50
2023-02-21T07:37:28.890Z,11.20
2023-02-21T07:40:02.040Z,20.60
2023-02-21T07:42:34.409Z,13.30
2023-02-21T07:45:07.408Z,10.60
2023-02-21T07:47:39.928Z,12.40
2023-02-21T07:50:13.416Z,13.70
2023-02-21T07:52:46.815Z,10.70
2023-02-21T07:55:21.839Z,12.00
2023-02-21T07:57:54.663Z,9.50
2023-02-21T08:00:27.651Z,9.90
2023-02-21T08:03:00.608Z,27.40
2023-02-21T08:05:33.723Z,21.30
2023-02-21T08:08:08.198Z,16.40
2023-02-21T08:10:40.737Z,17.00
2023-02-21T08:13:13.332Z,13.60
2023-02-21T08:15:45.888Z,13.50
2023-02-21T08:18:24.672Z,8.40
2023-02-21T08:20:58.009Z,10.50
2023-02-21T08:23:30.456Z,9.50
2023-02-21T08:26:03.866Z,8.00
2023-02-21T08:28:37.393Z,14.50
2023-02-21T08:31:10.076Z,10.30
2023-02-21T08:33:42.365Z,12.90
2023-02-21T08:36:15.049Z,15.40
2023-02-21T08:38:47.973Z,11.70
2023-02-21T08:41:20.362Z,13.20
2023-02-21T08:43:52.666Z,7.80
2023-02-21T08:46:24.980Z,9.20
2023-02-21T08:48:57.525Z,8.30
2023-02-21T08:51:31.278Z,10.70
2023-02-21T08:54:04.478Z,13.50
2023-02-21T08:56:37.312Z,14.20
2023-02-21T08:59:09.909Z,25.20
2023-02-21T09:01:42.173Z,30.80
2023-02-21T09:04:14.346Z,22.30
2023-02-21T09:06:46.585Z,19.00
2023-02-21T09:09:18.782Z,17.00
2023-02-21T09:11:51.303Z,15.50
2023-02-21T09:14:23.556Z,7.90
2023-02-21T09:16:55.784Z,7.90
2023-02-21T09:19:28.186Z,5.10
2023-02-21T09:22:01.825Z,7.50
2023-02-21T09:24:34.046Z,7.80
2023-02-21T09:27:07.330Z,19.00
2023-02-21T09:29:46.295Z,10.60
2023-02-21T09:32:18.919Z,7.60
2023-02-21T09:34:51.152Z,9.70
2023-02-21T09:37:23.331Z,8.30
2023-02-21T09:39:55.657Z,7.00
2023-02-21T09:42:32.739Z,7.00
2023-02-21T09:45:05.381Z,8.30
2023-02-21T09:47:40.281Z,8.40
2023-02-21T09:50:17.927Z,4.70
2023-02-21T09:52:50.780Z,7.30
2023-02-21T09:55:30.905Z,6.90
2023-02-21T09:58:03.880Z,10.40
2023-02-21T10:00:39.169Z,11.70
2023-02-21T10:03:35.238Z,14.00
2023-02-21T10:06:15.227Z,6.60
2023-02-21T10:08:55.085Z,6.30
2023-02-21T10:11:38.107Z,7.90
2023-02-21T10:14:21.675Z,6.60
2023-02-21T10:17:02.220Z,5.80
2023-02-21T10:19:40.392Z,3.70
2023-02-21T10:22:20.641Z,9.90
2023-02-21T10:24:54.171Z,9.10
2023-02-21T10:27:32.050Z,5.50
2023-02-21T10:30:10.454Z,7.00
2023-02-21T10:32:43.753Z,34.20
2023-02-21T10:35:15.963Z,68.80
2023-02-21T10:37:52.303Z,43.90
2023-02-21T10:40:34.570Z,15.90
2023-02-21T10:43:15.006Z,9.90
2023-02-21T10:45:52.045Z,5.90
2023-02-21T10:48:29.547Z,12.10
2023-02-21T10:51:11.238Z,17.20
2023-02-21T10:53:45.913Z,13.10
2023-02-21T10:56:28.314Z,15.20
2023-02-21T10:59:05.609Z,9.70
2023-02-21T11:01:44.102Z,8.90
2023-02-21T11:04:29.577Z,14.20
2023-02-21T11:07:06.539Z,9.90
2023-02-21T11:09:44.466Z,3.20
2023-02-21T11:12:26.068Z,3.50
2023-02-21T11:15:19.207Z,2.90
2023-02-21T11:18:14.269Z,7.10
2023-02-21T11:20:47.813Z,4.10
2023-02-21T11:23:28.800Z,6.80
2023-02-21T11:26:09.381Z,4.90
2023-02-21T11:28:44.592Z,4.70
2023-02-21T11:31:29.315Z,3.80
2023-02-21T11:34:04.387Z,3.60
2023-02-21T11:36:39.688Z,3.70
2023-02-21T11:39:19.002Z,4.90
2023-02-21T11:41:56.225Z,6.10
2023-02-21T11:44:31.616Z,5.30
2023-02-21T11:47:14.164Z,6.90
2023-02-21T11:49:54.675Z,6.80
2023-02-21T11:55:02.701Z,11.30
2023-02-21T11:57:45.932Z,7.00
2023-02-21T12:00:28.418Z,7.30
2023-02-21T12:03:33.814Z,8.80
2023-02-21T12:06:13.990Z,22.30
2023-02-21T12:08:53.487Z,12.50
2023-02-21T12:11:37.533Z,9.10
2023-02-21T12:14:23.466Z,8.30
2023-02-21T12:17:09.631Z,10.20
2023-02-21T12:19:58.954Z,15.20
2023-02-21T12:22:46.364Z,8.40
2023-02-21T12:25:26.501Z,5.10
2023-02-21T12:28:07.580Z,4.60
2023-02-21T12:30:55.973Z,3.80
2023-02-21T12:33:43.303Z,2.60
2023-02-21T12:36:45.330Z,3.80
2023-02-21T12:39:31.789Z,4.60
2023-02-21T12:42:26.849Z,4.30
2023-02-21T12:45:08.930Z,7.70
2023-02-21T12:47:54.828Z,7.00
2023-02-21T12:50:33.040Z,3.60
2023-02-21T12:53:13.680Z,3.20
2023-02-21T12:55:53.551Z,4.20
2023-02-21T12:58:32.013Z,8.90
2023-02-21T13:01:10.755Z,54.90
2023-02-21T13:03:56.831Z,68.50
2023-02-21T13:06:33.958Z,18.60
2023-02-21T13:09:22.917Z,13.10
2023-02-21T13:12:03.181Z,13.80
2023-02-21T13:14:42.502Z,7.70
2023-02-21T13:17:17.209Z,14.10
2023-02-21T13:19:52.016Z,8.60
2023-02-21T13:23:16.248Z,17.30
2023-02-21T13:26:22.441Z,5.60
2023-02-21T13:28:57.327Z,5.90
2023-02-21T13:31:38.450Z,5.00
2023-02-21T13:34:12.733Z,5.40
2023-02-21T13:36:49.389Z,9.50
2023-02-21T13:39:31.923Z,9.70
2023-02-21T13:42:10.472Z,7.40
2023-02-21T13:44:46.502Z,6.60
2023-02-21T13:47:20.968Z,8.40
2023-02-21T13:49:57.686Z,6.90
2023-02-21T13:52:59.305Z,6.70
2023-02-21T13:55:33.063Z,6.80
2023-02-21T13:58:31.758Z,6.20
2023-02-21T14:01:34.867Z,3.30
2023-02-21T14:04:44.320Z,5.80
2023-02-21T14:07:16.723Z,3.60
2023-02-21T14:09:51.212Z,3.10
2023-02-21T14:12:28.150Z,5.10
2023-02-21T14:15:09.361Z,5.20
2023-02-21T14:17:43.816Z,4.20
2023-02-21T14:20:22.820Z,6.50
2023-02-21T14:22:59.273Z,8.60
2023-02-21T14:25:37.187Z,10.50
2023-02-21T14:28:42.463Z,9.90
2023-02-21T14:31:16.241Z,10.20
2023-02-21T14:33:48.813Z,7.40
2023-02-21T14:36:21.383Z,6.50
2023-02-21T14:38:56.042Z,7.30
2023-02-21T14:41:48.240Z,9.20
2023-02-21T14:44:29.457Z,8.10
2023-02-21T14:47:36.256Z,8.00
2023-02-21T14:50:32.410Z,6.90
2023-02-21T14:53:41.724Z,7.60
2023-02-21T14:56:46.809Z,10.10
2023-02-21T14:59:35.525Z,11.10
2023-02-21T15:02:19.035Z,9.60
2023-02-21T15:05:05.227Z,13.70
2023-02-21T15:07:45.939Z,13.60
2023-02-21T15:10:26.124Z,12.10
2023-02-21T15:13:02.304Z,13.90
2023-02-21T15:15:36.940Z,18.20
2023-02-21T15:18:11.186Z,15.20
2023-02-21T15:20:44.778Z,12.50
2023-02-21T15:23:19.420Z,9.90
2023-02-21T15:25:59.194Z,13.30
2023-02-21T15:28:32.988Z,6.80
2023-02-21T15:31:08.147Z,9.20
2023-02-21T15:33:42.356Z,8.30
2023-02-21T15:36:22.133Z,7.90
2023-02-21T15:39:02.738Z,15.10
2023-02-21T15:41:38.381Z,11.20
2023-02-21T15:44:16.022Z,13.00
2023-02-21T15:46:59.012Z,11.80
2023-02-21T15:49:35.219Z,13.50
2023-02-21T15:52:08.369Z,9.50
2023-02-21T15:54:40.553Z,23.00
2023-02-21T15:57:29.424Z,14.90
2023-02-21T16:00:24.252Z,69.80
2023-02-21T16:03:29.917Z,91.00
2023-02-21T16:06:19.410Z,29.40
2023-02-21T16:09:02.294Z,24.10
2023-02-21T16:11:47.908Z,73.30
2023-02-21T16:14:24.582Z,56.60
2023-02-21T16:17:08.541Z,21.50
2023-02-21T16:19:41.559Z,18.30
2023-02-21T16:22:29.239Z,17.20
2023-02-21T16:25:29.901Z,20.90
2023-02-21T16:28:03.267Z,19.00
2023-02-21T16:30:39.349Z,42.70
2023-02-21T16:33:14.573Z,29.80
2023-02-21T16:35:47.166Z,26.50
2023-02-21T16:38:21.565Z,23.70
2023-02-21T16:40:54.501Z,29.10
2023-02-21T16:43:28.628Z,21.50
2023-02-21T16:46:01.148Z,21.30
2023-02-21T16:48:34.097Z,23.10
2023-02-21T16:51:09.027Z,23.80
2023-02-21T16:53:41.436Z,22.90
2023-02-21T16:56:13.992Z,23.30
2023-02-21T16:58:48.294Z,21.80
2023-02-21T17:01:28.519Z,18.80
2023-02-21T17:04:02.578Z,20.50
2023-02-21T17:06:35.790Z,24.00
2023-02-21T17:09:09.152Z,26.20
2023-02-21T17:11:41.479Z,19.70
2023-02-21T17:14:13.666Z,23.00
2023-02-21T17:16:46.165Z,27.40
2023-02-21T17:19:21.260Z,17.70
2023-02-21T17:21:54.814Z,18.80
2023-02-21T17:24:27.199Z,24.10
2023-02-21T17:27:01.282Z,21.70
2023-02-21T17:29:34.270Z,20.90
2023-02-21T17:32:08.896Z,21.90
2023-02-21T17:34:41.294Z,23.20
2023-02-21T17:37:13.853Z,26.10
2023-02-21T17:39:46.334Z,25.70
2023-02-21T17:42:18.874Z,24.60
2023-02-21T17:44:52.021Z,28.60
2023-02-21T17:47:25.435Z,24.60
2023-02-21T17:50:02.484Z,27.90
2023-02-21T17:52:35.694Z,39.00
2023-02-21T17:55:09.147Z,26.20
2023-02-21T17:57:41.554Z,28.10
2023-02-21T18:00:23.211Z,21.20
2023-02-21T18:02:57.456Z,27.70
2023-02-21T18:05:30.479Z,34.20
2023-02-21T18:08:02.847Z,23.00
2023-02-21T18:10:35.149Z,27.10
2023-02-21T18:13:07.400Z,22.70
2023-02-21T18:15:40.105Z,26.60
2023-02-21T18:18:12.429Z,22.70
2023-02-21T18:20:46.001Z,21.40
2023-02-21T18:23:18.866Z,21.40
2023-02-21T18:25:51.350Z,18.50
2023-02-21T18:28:23.775Z,35.50
2023-02-21T18:30:57.553Z,36.60
2023-02-21T18:33:29.862Z,27.40
2023-02-21T18:36:02.927Z,18.90
2023-02-21T18:38:35.127Z,25.50
2023-02-21T18:41:12.397Z,30.60
2023-02-21T18:43:44.998Z,24.10
2023-02-21T18:46:20.072Z,23.70
2023-02-21T18:48:53.043Z,24.90
2023-02-21T18:51:25.990Z,24.40
2023-02-21T18:53:58.198Z,21.40
2023-02-21T18:56:30.660Z,23.40
2023-02-21T18:59:02.922Z,26.80
2023-02-21T19:01:35.111Z,24.10
2023-02-21T19:04:08.112Z,15.30
2023-02-21T19:06:40.781Z,16.40
2023-02-21T19:09:13.579Z,23.00
2023-02-21T19:11:46.229Z,14.30
2023-02-21T19:14:18.693Z,23.10
2023-02-21T19:16:53.574Z,24.10
2023-02-21T19:19:26.039Z,22.30
2023-02-21T19:21:58.456Z,20.30
2023-02-21T19:24:30.944Z,21.80
2023-02-21T19:27:03.662Z,25.30
2023-02-21T19:29:35.782Z,26.20
2023-02-21T19:32:08.412Z,17.70
2023-02-21T19:34:40.783Z,23.30
2023-02-21T19:37:13.372Z,17.60
2023-02-21T19:39:46.201Z,26.60
2023-02-21T19:42:21.308Z,19.10
2023-02-21T19:44:54.103Z,24.80
2023-02-21T19:47:29.681Z,26.30
2023-02-21T19:50:02.669Z,32.70
2023-02-21T19:52:34.956Z,34.30
2023-02-21T19:55:08.280Z,22.00
2023-02-21T19:57:40.457Z,27.90
2023-02-21T20:00:15.631Z,35.60
2023-02-21T20:02:47.877Z,34.90
2023-02-21T20:05:20.406Z,27.30
2023-02-21T20:07:53.003Z,30.10
2023-02-21T20:10:26.550Z,55.20
2023-02-21T20:13:06.420Z,42.30
2023-02-21T20:15:38.945Z,31.70
2023-02-21T20:18:11.113Z,67.70
2023-02-21T20:20:47.345Z,82.80
2023-02-21T20:23:19.679Z,42.10
2023-02-21T20:25:52.050Z,50.00
2023-02-21T20:28:24.167Z,30.60
2023-02-21T20:30:56.453Z,39.00
2023-02-21T20:33:28.809Z,31.80
2023-02-21T20:36:01.164Z,25.20
2023-02-21T20:38:33.679Z,33.70
2023-02-21T20:41:08.757Z,24.80
2023-02-21T20:43:40.968Z,29.60
2023-02-21T20:46:16.489Z,34.10
2023-02-21T20:48:49.096Z,23.90
2023-02-21T20:51:33.029Z,25.00
2023-02-21T20:54:05.832Z,30.00
2023-02-21T20:56:39.636Z,32.90
2023-02-21T20:59:17.403Z,34.10
2023-02-21T21:01:50.519Z,32.30
2023-02-21T21:04:32.343Z,26.50
2023-02-21T21:07:06.596Z,27.00
2023-02-21T21:09:40.858Z,47.20
2023-02-21T21:12:17.060Z,64.30
2023-02-21T21:14:53.270Z,79.90
2023-02-21T21:17:26.334Z,42.20
2023-02-21T21:19:59.210Z,36.00
2023-02-21T21:22:31.972Z,32.00
2023-02-21T21:25:04.795Z,26.10
2023-02-21T21:27:37.701Z,23.70
2023-02-21T21:30:18.267Z,30.70
2023-02-21T21:35:29.971Z,27.80
2023-02-21T21:38:03.692Z,26.10
2023-02-21T21:40:39.278Z,28.50
2023-02-21T21:43:12.332Z,32.20
2023-02-21T21:45:45.280Z,27.60
2023-02-21T21:48:19.225Z,33.20
2023-02-21T21:50:51.946Z,58.70
2023-02-21T21:53:24.227Z,43.50
2023-02-21T21:56:00.431Z,67.00
2023-02-21T21:58:33.834Z,44.30
2023-02-21T22:01:06.994Z,33.20
2023-02-21T22:03:39.695Z,40.60
2023-02-21T22:06:14.850Z,99.70
2023-02-21T22:08:47.088Z,40.60
2023-02-21T22:11:21.263Z,60.30
2023-02-21T22:13:54.880Z,49.30
2023-02-21T22:16:27.764Z,34.00
2023-02-21T22:19:02.856Z,40.90
2023-02-21T22:21:35.555Z,31.90
2023-02-21T22:24:09.822Z,34.50
2023-02-21T22:26:44.851Z,35.40
2023-02-21T22:29:20.190Z,50.40
2023-02-21T22:31:53.252Z,69.30
2023-02-21T22:34:26.227Z,82.40
2023-02-21T22:37:00.227Z,124.90
2023-02-21T22:39:32.944Z,171.90
2023-02-21T22:42:08.962Z,75.50
2023-02-21T22:44:46.321Z,75.40
2023-02-21T22:47:20.331Z,81.50
2023-02-21T22:50:01.236Z,64.80
2023-02-21T22:52:33.926Z,65.00
2023-02-21T22:55:07.394Z,57.80
2023-02-21T22:57:39.738Z,56.70
2023-02-21T23:00:20.405Z,48.10
2023-02-21T23:02:56.255Z,55.70
2023-02-21T23:05:29.061Z,56.00
2023-02-21T23:08:01.374Z,57.50
2023-02-21T23:10:34.489Z,78.10
2023-02-21T23:13:14.398Z,79.00
2023-02-21T23:15:54.724Z,72.30
2023-02-21T23:18:29.230Z,52.30
2023-02-21T23:21:10.034Z,40.80
2023-02-21T23:23:42.474Z,44.70
2023-02-21T23:26:21.660Z,59.90
2023-02-21T23:28:54.042Z,46.20
2023-02-21T23:31:26.534Z,53.20
2023-02-21T23:33:58.818Z,56.70
2023-02-21T23:36:34.336Z,50.40
2023-02-21T23:39:09.286Z,51.20
2023-02-21T23:41:42.537Z,34.30
2023-02-21T23:44:16.219Z,31.70
2023-02-21T23:46:50.383Z,31.50
2023-02-21T23:49:26.304Z,35.50
2023-02-21T23:52:01.346Z,20.30
2023-02-21T23:54:35.932Z,27.10
2023-02-21T23:57:08.182Z,21.30
2023-02-21T23:59:40.604Z,32.10
